sensor_id;sensor_type;location;lat;lon;timestamp;P1;durP1;ratioP1;P2;durP2;ratioP2
24787;SDS011;12883;52.662;5.196;2023-07-13T00:00:53;2.40;;;2.40;;
24787;SDS011;12883;52.662;5.196;2023-07-13T00:03:18;2.88;;;2.88;;
24787;SDS011;12883;52.662;5.196;2023-07-13T00:05:43;2.88;;;2.88;;
24787;SDS011;12883;52.662;5.196;2023-07-13T00:08:09;2.65;;;2.65;;
24787;SDS011;12883;52.662;5.196;2023-07-13T00:10:42;3.13;;;3.13;;
24787;SDS011;12883;52.662;5.196;2023-07-13T00:13:08;3.03;;;3.03;;
24787;SDS011;12883;52.662;5.196;2023-07-13T00:15:34;4.50;;;4.50;;
24787;SDS011;12883;52.662;5.196;2023-07-13T00:18:00;3.65;;;3.65;;
24787;SDS011;12883;52.662;5.196;2023-07-13T00:20:25;4.75;;;4.75;;
24787;SDS011;12883;52.662;5.196;2023-07-13T00:22:51;5.07;;;5.00;;
24787;SDS011;12883;52.662;5.196;2023-07-13T00:25:19;3.50;;;3.50;;
24787;SDS011;12883;52.662;5.196;2023-07-13T00:27:46;4.30;;;4.30;;
24787;SDS011;12883;52.662;5.196;2023-07-13T00:30:13;4.45;;;4.45;;
24787;SDS011;12883;52.662;5.196;2023-07-13T00:32:39;4.88;;;4.78;;
24787;SDS011;12883;52.662;5.196;2023-07-13T00:35:05;4.22;;;4.22;;
24787;SDS011;12883;52.662;5.196;2023-07-13T00:37:31;4.20;;;4.18;;
24787;SDS011;12883;52.662;5.196;2023-07-13T00:39:56;4.70;;;4.70;;
24787;SDS011;12883;52.662;5.196;2023-07-13T00:42:22;4.60;;;4.50;;
24787;SDS011;12883;52.662;5.196;2023-07-13T00:46:02;4.88;;;4.88;;
24787;SDS011;12883;52.662;5.196;2023-07-13T00:47:51;4.85;;;4.75;;
24787;SDS011;12883;52.662;5.196;2023-07-13T00:50:16;5.07;;;5.07;;
24787;SDS011;12883;52.662;5.196;2023-07-13T00:52:45;5.20;;;5.20;;
24787;SDS011;12883;52.662;5.196;2023-07-13T00:55:14;4.10;;;4.10;;
24787;SDS011;12883;52.662;5.196;2023-07-13T00:57:41;5.03;;;5.03;;
24787;SDS011;12883;52.662;5.196;2023-07-13T01:00:08;5.50;;;5.40;;
24787;SDS011;12883;52.662;5.196;2023-07-13T01:02:38;4.82;;;4.82;;
24787;SDS011;12883;52.662;5.196;2023-07-13T01:05:12;5.88;;;5.78;;
24787;SDS011;12883;52.662;5.196;2023-07-13T01:07:47;5.20;;;5.10;;
24787;SDS011;12883;52.662;5.196;2023-07-13T01:10:14;6.25;;;6.15;;
24787;SDS011;12883;52.662;5.196;2023-07-13T01:12:40;5.68;;;5.68;;
24787;SDS011;12883;52.662;5.196;2023-07-13T01:15:05;5.80;;;5.70;;
24787;SDS011;12883;52.662;5.196;2023-07-13T01:18:13;6.50;;;6.40;;
24787;SDS011;12883;52.662;5.196;2023-07-13T01:20:46;6.47;;;6.38;;
24787;SDS011;12883;52.662;5.196;2023-07-13T01:23:15;6.22;;;6.13;;
24787;SDS011;12883;52.662;5.196;2023-07-13T01:25:41;5.93;;;5.82;;
24787;SDS011;12883;52.662;5.196;2023-07-13T01:28:06;7.18;;;7.07;;
24787;SDS011;12883;52.662;5.196;2023-07-13T01:30:36;8.13;;;8.02;;
24787;SDS011;12883;52.662;5.196;2023-07-13T01:33:04;6.38;;;6.28;;
24787;SDS011;12883;52.662;5.196;2023-07-13T01:35:34;7.30;;;7.20;;
24787;SDS011;12883;52.662;5.196;2023-07-13T01:38:00;7.22;;;7.13;;
24787;SDS011;12883;52.662;5.196;2023-07-13T01:40:26;6.53;;;6.43;;
24787;SDS011;12883;52.662;5.196;2023-07-13T01:42:52;6.25;;;6.15;;
24787;SDS011;12883;52.662;5.196;2023-07-13T01:45:17;5.18;;;5.07;;
24787;SDS011;12883;52.662;5.196;2023-07-13T01:47:43;6.13;;;6.03;;
24787;SDS011;12883;52.662;5.196;2023-07-13T01:50:08;5.43;;;5.32;;
24787;SDS011;12883;52.662;5.196;2023-07-13T01:52:34;4.88;;;4.78;;
24787;SDS011;12883;52.662;5.196;2023-07-13T01:54:59;5.43;;;5.32;;
24787;SDS011;12883;52.662;5.196;2023-07-13T01:57:25;3.72;;;3.72;;
24787;SDS011;12883;52.662;5.196;2023-07-13T01:59:50;4.38;;;4.35;;
24787;SDS011;12883;52.662;5.196;2023-07-13T02:02:15;3.75;;;3.75;;
24787;SDS011;12883;52.662;5.196;2023-07-13T02:04:41;3.85;;;3.85;;
24787;SDS011;12883;52.662;5.196;2023-07-13T02:07:06;4.32;;;4.32;;
24787;SDS011;12883;52.662;5.196;2023-07-13T02:09:33;3.75;;;3.75;;
24787;SDS011;12883;52.662;5.196;2023-07-13T02:11:58;3.47;;;3.47;;
24787;SDS011;12883;52.662;5.196;2023-07-13T02:14:24;2.42;;;2.42;;
24787;SDS011;12883;52.662;5.196;2023-07-13T02:16:49;2.45;;;2.45;;
24787;SDS011;12883;52.662;5.196;2023-07-13T02:19:14;2.53;;;2.53;;
24787;SDS011;12883;52.662;5.196;2023-07-13T02:21:40;2.45;;;2.45;;
24787;SDS011;12883;52.662;5.196;2023-07-13T02:24:05;2.40;;;2.40;;
24787;SDS011;12883;52.662;5.196;2023-07-13T02:26:30;2.50;;;2.50;;
24787;SDS011;12883;52.662;5.196;2023-07-13T02:28:56;2.90;;;2.90;;
24787;SDS011;12883;52.662;5.196;2023-07-13T02:31:21;2.45;;;2.45;;
24787;SDS011;12883;52.662;5.196;2023-07-13T02:33:46;2.80;;;2.80;;
24787;SDS011;12883;52.662;5.196;2023-07-13T02:36:12;2.72;;;2.72;;
24787;SDS011;12883;52.662;5.196;2023-07-13T02:38:39;2.28;;;2.28;;
24787;SDS011;12883;52.662;5.196;2023-07-13T02:41:05;2.20;;;2.20;;
24787;SDS011;12883;52.662;5.196;2023-07-13T02:43:32;2.70;;;2.70;;
24787;SDS011;12883;52.662;5.196;2023-07-13T02:46:01;2.47;;;2.47;;
24787;SDS011;12883;52.662;5.196;2023-07-13T02:48:32;2.72;;;2.72;;
24787;SDS011;12883;52.662;5.196;2023-07-13T02:50:58;2.97;;;2.97;;
24787;SDS011;12883;52.662;5.196;2023-07-13T02:53:23;2.65;;;2.65;;
24787;SDS011;12883;52.662;5.196;2023-07-13T02:55:49;3.20;;;3.20;;
24787;SDS011;12883;52.662;5.196;2023-07-13T02:58:14;3.28;;;3.28;;
24787;SDS011;12883;52.662;5.196;2023-07-13T03:00:43;2.75;;;2.75;;
24787;SDS011;12883;52.662;5.196;2023-07-13T03:03:09;3.08;;;3.08;;
24787;SDS011;12883;52.662;5.196;2023-07-13T03:05:34;2.78;;;2.78;;
24787;SDS011;12883;52.662;5.196;2023-07-13T03:08:00;2.83;;;2.83;;
24787;SDS011;12883;52.662;5.196;2023-07-13T03:10:25;2.90;;;2.90;;
24787;SDS011;12883;52.662;5.196;2023-07-13T03:12:50;3.67;;;3.67;;
24787;SDS011;12883;52.662;5.196;2023-07-13T03:15:16;3.55;;;3.55;;
24787;SDS011;12883;52.662;5.196;2023-07-13T03:17:41;2.92;;;2.92;;
24787;SDS011;12883;52.662;5.196;2023-07-13T03:20:06;3.05;;;3.05;;
24787;SDS011;12883;52.662;5.196;2023-07-13T03:22:32;3.10;;;3.10;;
24787;SDS011;12883;52.662;5.196;2023-07-13T03:24:58;3.83;;;3.83;;
24787;SDS011;12883;52.662;5.196;2023-07-13T03:27:23;2.90;;;2.90;;
24787;SDS011;12883;52.662;5.196;2023-07-13T03:29:48;3.58;;;3.58;;
24787;SDS011;12883;52.662;5.196;2023-07-13T03:32:14;3.17;;;3.17;;
24787;SDS011;12883;52.662;5.196;2023-07-13T03:34:39;3.67;;;3.67;;
24787;SDS011;12883;52.662;5.196;2023-07-13T03:37:04;3.58;;;3.58;;
24787;SDS011;12883;52.662;5.196;2023-07-13T03:39:30;3.03;;;3.03;;
24787;SDS011;12883;52.662;5.196;2023-07-13T03:41:55;3.53;;;3.53;;
24787;SDS011;12883;52.662;5.196;2023-07-13T03:44:21;3.28;;;3.28;;
24787;SDS011;12883;52.662;5.196;2023-07-13T03:46:46;3.03;;;3.03;;
24787;SDS011;12883;52.662;5.196;2023-07-13T03:49:12;2.80;;;2.80;;
24787;SDS011;12883;52.662;5.196;2023-07-13T03:51:37;3.45;;;3.45;;
24787;SDS011;12883;52.662;5.196;2023-07-13T03:54:02;4.10;;;4.10;;
24787;SDS011;12883;52.662;5.196;2023-07-13T03:56:28;3.97;;;3.97;;
24787;SDS011;12883;52.662;5.196;2023-07-13T03:58:55;3.47;;;3.47;;
24787;SDS011;12883;52.662;5.196;2023-07-13T04:01:21;2.85;;;2.85;;
24787;SDS011;12883;52.662;5.196;2023-07-13T04:03:48;3.53;;;3.53;;
24787;SDS011;12883;52.662;5.196;2023-07-13T04:06:15;3.70;;;3.70;;
24787;SDS011;12883;52.662;5.196;2023-07-13T04:08:46;3.47;;;3.47;;
24787;SDS011;12883;52.662;5.196;2023-07-13T04:11:17;3.25;;;3.25;;
24787;SDS011;12883;52.662;5.196;2023-07-13T04:13:43;3.15;;;3.15;;
24787;SDS011;12883;52.662;5.196;2023-07-13T04:16:09;3.60;;;3.60;;
24787;SDS011;12883;52.662;5.196;2023-07-13T04:18:34;3.45;;;3.45;;
24787;SDS011;12883;52.662;5.196;2023-07-13T04:21:00;3.60;;;3.60;;
24787;SDS011;12883;52.662;5.196;2023-07-13T04:23:25;4.45;;;4.35;;
24787;SDS011;12883;52.662;5.196;2023-07-13T04:25:51;3.45;;;3.45;;
24787;SDS011;12883;52.662;5.196;2023-07-13T04:28:18;3.90;;;3.90;;
24787;SDS011;12883;52.662;5.196;2023-07-13T04:30:44;3.65;;;3.65;;
24787;SDS011;12883;52.662;5.196;2023-07-13T04:33:10;3.60;;;3.60;;
24787;SDS011;12883;52.662;5.196;2023-07-13T04:35:35;3.60;;;3.60;;
24787;SDS011;12883;52.662;5.196;2023-07-13T04:38:02;3.53;;;3.53;;
24787;SDS011;12883;52.662;5.196;2023-07-13T04:40:28;4.18;;;4.18;;
24787;SDS011;12883;52.662;5.196;2023-07-13T04:42:54;3.00;;;3.00;;
24787;SDS011;12883;52.662;5.196;2023-07-13T04:45:21;3.63;;;3.63;;
24787;SDS011;12883;52.662;5.196;2023-07-13T04:47:48;4.05;;;4.05;;
24787;SDS011;12883;52.662;5.196;2023-07-13T04:50:14;3.70;;;3.70;;
24787;SDS011;12883;52.662;5.196;2023-07-13T04:52:47;3.42;;;3.42;;
24787;SDS011;12883;52.662;5.196;2023-07-13T04:55:14;3.58;;;3.58;;
24787;SDS011;12883;52.662;5.196;2023-07-13T04:57:39;4.68;;;4.68;;
24787;SDS011;12883;52.662;5.196;2023-07-13T05:00:05;3.88;;;3.88;;
24787;SDS011;12883;52.662;5.196;2023-07-13T05:02:32;3.33;;;3.33;;
24787;SDS011;12883;52.662;5.196;2023-07-13T05:04:58;3.38;;;3.38;;
24787;SDS011;12883;52.662;5.196;2023-07-13T05:07:24;4.25;;;4.25;;
24787;SDS011;12883;52.662;5.196;2023-07-13T05:09:50;3.83;;;3.83;;
24787;SDS011;12883;52.662;5.196;2023-07-13T05:12:16;4.30;;;4.30;;
24787;SDS011;12883;52.662;5.196;2023-07-13T05:14:41;3.90;;;3.90;;
24787;SDS011;12883;52.662;5.196;2023-07-13T05:17:07;3.80;;;3.80;;
24787;SDS011;12883;52.662;5.196;2023-07-13T05:19:32;3.88;;;3.88;;
24787;SDS011;12883;52.662;5.196;2023-07-13T05:21:57;3.83;;;3.83;;
24787;SDS011;12883;52.662;5.196;2023-07-13T05:24:23;3.55;;;3.55;;
24787;SDS011;12883;52.662;5.196;2023-07-13T05:26:48;3.55;;;3.55;;
24787;SDS011;12883;52.662;5.196;2023-07-13T05:29:14;3.90;;;3.90;;
24787;SDS011;12883;52.662;5.196;2023-07-13T05:31:39;4.55;;;4.55;;
24787;SDS011;12883;52.662;5.196;2023-07-13T05:34:04;3.83;;;3.83;;
24787;SDS011;12883;52.662;5.196;2023-07-13T05:36:30;3.63;;;3.63;;
24787;SDS011;12883;52.662;5.196;2023-07-13T05:38:56;3.88;;;3.88;;
24787;SDS011;12883;52.662;5.196;2023-07-13T05:41:21;3.67;;;3.67;;
24787;SDS011;12883;52.662;5.196;2023-07-13T05:43:46;4.05;;;4.05;;
24787;SDS011;12883;52.662;5.196;2023-07-13T05:46:12;4.72;;;4.63;;
24787;SDS011;12883;52.662;5.196;2023-07-13T05:48:37;3.83;;;3.83;;
24787;SDS011;12883;52.662;5.196;2023-07-13T05:51:02;3.70;;;3.70;;
24787;SDS011;12883;52.662;5.196;2023-07-13T05:53:28;4.00;;;4.00;;
24787;SDS011;12883;52.662;5.196;2023-07-13T05:55:53;3.78;;;3.78;;
24787;SDS011;12883;52.662;5.196;2023-07-13T05:58:19;4.05;;;4.05;;
24787;SDS011;12883;52.662;5.196;2023-07-13T06:00:45;3.58;;;3.58;;
24787;SDS011;12883;52.662;5.196;2023-07-13T06:03:11;4.40;;;4.40;;
24787;SDS011;12883;52.662;5.196;2023-07-13T06:05:37;3.45;;;3.45;;
24787;SDS011;12883;52.662;5.196;2023-07-13T06:08:04;4.00;;;4.00;;
24787;SDS011;12883;52.662;5.196;2023-07-13T06:10:32;4.07;;;4.07;;
24787;SDS011;12883;52.662;5.196;2023-07-13T06:12:58;3.70;;;3.70;;
24787;SDS011;12883;52.662;5.196;2023-07-13T06:15:23;3.80;;;3.80;;
24787;SDS011;12883;52.662;5.196;2023-07-13T06:17:49;3.92;;;3.92;;
24787;SDS011;12883;52.662;5.196;2023-07-13T06:20:14;4.03;;;4.03;;
24787;SDS011;12883;52.662;5.196;2023-07-13T06:22:39;4.65;;;4.60;;
24787;SDS011;12883;52.662;5.196;2023-07-13T06:25:05;3.75;;;3.75;;
24787;SDS011;12883;52.662;5.196;2023-07-13T06:27:30;4.82;;;4.82;;
24787;SDS011;12883;52.662;5.196;2023-07-13T06:29:56;4.68;;;4.68;;
24787;SDS011;12883;52.662;5.196;2023-07-13T06:32:21;4.30;;;4.30;;
24787;SDS011;12883;52.662;5.196;2023-07-13T06:34:46;4.03;;;4.03;;
24787;SDS011;12883;52.662;5.196;2023-07-13T06:37:12;4.18;;;4.18;;
24787;SDS011;12883;52.662;5.196;2023-07-13T06:39:37;3.45;;;3.45;;
24787;SDS011;12883;52.662;5.196;2023-07-13T06:42:03;3.60;;;3.60;;
24787;SDS011;12883;52.662;5.196;2023-07-13T06:44:28;3.85;;;3.85;;
24787;SDS011;12883;52.662;5.196;2023-07-13T06:46:54;3.55;;;3.55;;
24787;SDS011;12883;52.662;5.196;2023-07-13T06:49:19;3.60;;;3.60;;
24787;SDS011;12883;52.662;5.196;2023-07-13T06:51:44;3.85;;;3.85;;
24787;SDS011;12883;52.662;5.196;2023-07-13T06:54:10;3.63;;;3.63;;
24787;SDS011;12883;52.662;5.196;2023-07-13T06:56:35;3.15;;;3.15;;
24787;SDS011;12883;52.662;5.196;2023-07-13T06:59:00;3.33;;;3.33;;
24787;SDS011;12883;52.662;5.196;2023-07-13T07:01:26;3.00;;;3.00;;
24787;SDS011;12883;52.662;5.196;2023-07-13T07:03:51;2.88;;;2.88;;
24787;SDS011;12883;52.662;5.196;2023-07-13T07:06:18;3.40;;;3.40;;
24787;SDS011;12883;52.662;5.196;2023-07-13T07:08:45;2.90;;;2.90;;
24787;SDS011;12883;52.662;5.196;2023-07-13T07:11:12;3.13;;;3.13;;
24787;SDS011;12883;52.662;5.196;2023-07-13T07:13:39;3.03;;;3.03;;
24787;SDS011;12883;52.662;5.196;2023-07-13T07:16:05;3.30;;;3.30;;
24787;SDS011;12883;52.662;5.196;2023-07-13T07:18:31;3.17;;;3.17;;
24787;SDS011;12883;52.662;5.196;2023-07-13T07:20:57;3.63;;;3.63;;
24787;SDS011;12883;52.662;5.196;2023-07-13T07:23:22;3.05;;;3.05;;
24787;SDS011;12883;52.662;5.196;2023-07-13T07:25:48;2.92;;;2.92;;
24787;SDS011;12883;52.662;5.196;2023-07-13T07:28:15;2.90;;;2.90;;
24787;SDS011;12883;52.662;5.196;2023-07-13T07:30:43;2.90;;;2.90;;
24787;SDS011;12883;52.662;5.196;2023-07-13T07:33:11;3.13;;;3.13;;
24787;SDS011;12883;52.662;5.196;2023-07-13T07:35:37;2.85;;;2.85;;
24787;SDS011;12883;52.662;5.196;2023-07-13T07:38:02;3.20;;;3.20;;
24787;SDS011;12883;52.662;5.196;2023-07-13T07:40:28;3.33;;;3.33;;
24787;SDS011;12883;52.662;5.196;2023-07-13T07:42:54;3.72;;;3.72;;
24787;SDS011;12883;52.662;5.196;2023-07-13T07:45:20;3.17;;;3.17;;
24787;SDS011;12883;52.662;5.196;2023-07-13T07:47:45;3.08;;;3.08;;
24787;SDS011;12883;52.662;5.196;2023-07-13T07:50:11;2.80;;;2.80;;
24787;SDS011;12883;52.662;5.196;2023-07-13T07:52:37;2.53;;;2.53;;
24787;SDS011;12883;52.662;5.196;2023-07-13T07:55:03;2.78;;;2.78;;
24787;SDS011;12883;52.662;5.196;2023-07-13T07:57:30;2.53;;;2.53;;
24787;SDS011;12883;52.662;5.196;2023-07-13T07:59:55;2.50;;;2.50;;
24787;SDS011;12883;52.662;5.196;2023-07-13T08:02:21;2.67;;;2.67;;
24787;SDS011;12883;52.662;5.196;2023-07-13T08:04:46;3.65;;;3.65;;
24787;SDS011;12883;52.662;5.196;2023-07-13T08:07:11;3.60;;;3.60;;
24787;SDS011;12883;52.662;5.196;2023-07-13T08:09:36;3.20;;;3.20;;
24787;SDS011;12883;52.662;5.196;2023-07-13T08:12:02;2.88;;;2.88;;
24787;SDS011;12883;52.662;5.196;2023-07-13T08:14:27;2.38;;;2.38;;
24787;SDS011;12883;52.662;5.196;2023-07-13T08:16:53;2.58;;;2.58;;
24787;SDS011;12883;52.662;5.196;2023-07-13T08:19:18;1.92;;;1.92;;
24787;SDS011;12883;52.662;5.196;2023-07-13T08:21:44;2.45;;;2.45;;
24787;SDS011;12883;52.662;5.196;2023-07-13T08:24:09;2.03;;;2.03;;
24787;SDS011;12883;52.662;5.196;2023-07-13T08:26:35;1.80;;;1.80;;
24787;SDS011;12883;52.662;5.196;2023-07-13T08:29:00;1.30;;;1.30;;
24787;SDS011;12883;52.662;5.196;2023-07-13T08:31:26;1.58;;;1.58;;
24787;SDS011;12883;52.662;5.196;2023-07-13T08:33:51;1.20;;;1.20;;
24787;SDS011;12883;52.662;5.196;2023-07-13T08:36:17;1.58;;;1.58;;
24787;SDS011;12883;52.662;5.196;2023-07-13T08:38:42;1.92;;;1.92;;
24787;SDS011;12883;52.662;5.196;2023-07-13T08:41:12;1.67;;;1.67;;
24787;SDS011;12883;52.662;5.196;2023-07-13T08:43:42;1.70;;;1.70;;
24787;SDS011;12883;52.662;5.196;2023-07-13T08:46:25;2.38;;;2.38;;
24787;SDS011;12883;52.662;5.196;2023-07-13T08:49:04;2.50;;;2.50;;
24787;SDS011;12883;52.662;5.196;2023-07-13T08:51:42;2.10;;;2.10;;
24787;SDS011;12883;52.662;5.196;2023-07-13T08:54:19;1.80;;;1.80;;
24787;SDS011;12883;52.662;5.196;2023-07-13T08:56:49;2.63;;;2.63;;
24787;SDS011;12883;52.662;5.196;2023-07-13T08:59:18;2.33;;;2.33;;
24787;SDS011;12883;52.662;5.196;2023-07-13T09:01:59;2.40;;;2.40;;
24787;SDS011;12883;52.662;5.196;2023-07-13T09:04:37;2.22;;;2.22;;
24787;SDS011;12883;52.662;5.196;2023-07-13T09:07:26;2.70;;;2.70;;
24787;SDS011;12883;52.662;5.196;2023-07-13T09:12:45;2.80;;;2.80;;
24787;SDS011;12883;52.662;5.196;2023-07-13T09:15:34;2.63;;;2.63;;
24787;SDS011;12883;52.662;5.196;2023-07-13T09:18:25;1.92;;;1.92;;
24787;SDS011;12883;52.662;5.196;2023-07-13T09:20:56;1.75;;;1.75;;
24787;SDS011;12883;52.662;5.196;2023-07-13T09:23:26;2.10;;;2.10;;
24787;SDS011;12883;52.662;5.196;2023-07-13T09:25:59;1.95;;;1.95;;
24787;SDS011;12883;52.662;5.196;2023-07-13T09:28:29;2.67;;;2.67;;
24787;SDS011;12883;52.662;5.196;2023-07-13T09:31:14;2.13;;;2.13;;
24787;SDS011;12883;52.662;5.196;2023-07-13T09:33:43;2.38;;;2.38;;
24787;SDS011;12883;52.662;5.196;2023-07-13T09:36:17;2.15;;;2.15;;
24787;SDS011;12883;52.662;5.196;2023-07-13T09:38:46;2.60;;;2.60;;
24787;SDS011;12883;52.662;5.196;2023-07-13T09:41:19;2.30;;;2.30;;
24787;SDS011;12883;52.662;5.196;2023-07-13T09:46:42;2.30;;;2.30;;
24787;SDS011;12883;52.662;5.196;2023-07-13T09:49:17;2.17;;;2.17;;
24787;SDS011;12883;52.662;5.196;2023-07-13T09:51:42;2.65;;;2.65;;
24787;SDS011;12883;52.662;5.196;2023-07-13T09:54:19;1.98;;;1.98;;
24787;SDS011;12883;52.662;5.196;2023-07-13T09:56:46;2.53;;;2.53;;
24787;SDS011;12883;52.662;5.196;2023-07-13T09:59:20;2.65;;;2.65;;
24787;SDS011;12883;52.662;5.196;2023-07-13T10:01:48;2.47;;;2.47;;
24787;SDS011;12883;52.662;5.196;2023-07-13T10:04:16;3.38;;;3.38;;
24787;SDS011;12883;52.662;5.196;2023-07-13T10:06:44;2.33;;;2.33;;
24787;SDS011;12883;52.662;5.196;2023-07-13T10:09:13;2.45;;;2.45;;
24787;SDS011;12883;52.662;5.196;2023-07-13T10:11:41;2.88;;;2.88;;
24787;SDS011;12883;52.662;5.196;2023-07-13T10:14:11;2.45;;;2.45;;
24787;SDS011;12883;52.662;5.196;2023-07-13T10:16:37;2.40;;;2.40;;
24787;SDS011;12883;52.662;5.196;2023-07-13T10:19:12;2.70;;;2.70;;
24787;SDS011;12883;52.662;5.196;2023-07-13T10:22:49;2.92;;;2.92;;
24787;SDS011;12883;52.662;5.196;2023-07-13T10:24:57;3.10;;;3.10;;
24787;SDS011;12883;52.662;5.196;2023-07-13T10:27:25;2.47;;;2.47;;
24787;SDS011;12883;52.662;5.196;2023-07-13T10:29:59;2.35;;;2.35;;
24787;SDS011;12883;52.662;5.196;2023-07-13T10:32:29;2.75;;;2.75;;
24787;SDS011;12883;52.662;5.196;2023-07-13T10:34:55;2.55;;;2.55;;
24787;SDS011;12883;52.662;5.196;2023-07-13T10:37:23;2.95;;;2.95;;
24787;SDS011;12883;52.662;5.196;2023-07-13T10:39:53;2.85;;;2.85;;
24787;SDS011;12883;52.662;5.196;2023-07-13T10:42:27;2.67;;;2.67;;
24787;SDS011;12883;52.662;5.196;2023-07-13T10:44:56;3.15;;;3.15;;
24787;SDS011;12883;52.662;5.196;2023-07-13T10:47:21;3.80;;;3.80;;
24787;SDS011;12883;52.662;5.196;2023-07-13T10:49:47;2.92;;;2.92;;
24787;SDS011;12883;52.662;5.196;2023-07-13T10:55:09;2.47;;;2.47;;
24787;SDS011;12883;52.662;5.196;2023-07-13T11:03:31;2.53;;;2.53;;
24787;SDS011;12883;52.662;5.196;2023-07-13T11:06:12;2.15;;;2.15;;
24787;SDS011;12883;52.662;5.196;2023-07-13T11:11:43;2.25;;;2.25;;
24787;SDS011;12883;52.662;5.196;2023-07-13T11:20:24;2.40;;;2.40;;
24787;SDS011;12883;52.662;5.196;2023-07-13T11:23:17;2.45;;;2.45;;
24787;SDS011;12883;52.662;5.196;2023-07-13T11:25:46;2.42;;;2.42;;
24787;SDS011;12883;52.662;5.196;2023-07-13T11:30:48;2.80;;;2.80;;
24787;SDS011;12883;52.662;5.196;2023-07-13T11:38:40;2.47;;;2.47;;
24787;SDS011;12883;52.662;5.196;2023-07-13T11:41:42;2.50;;;2.50;;
24787;SDS011;12883;52.662;5.196;2023-07-13T11:46:36;2.60;;;2.60;;
24787;SDS011;12883;52.662;5.196;2023-07-13T11:49:04;2.25;;;2.25;;
24787;SDS011;12883;52.662;5.196;2023-07-13T11:51:31;3.00;;;3.00;;
24787;SDS011;12883;52.662;5.196;2023-07-13T11:54:06;2.85;;;2.85;;
24787;SDS011;12883;52.662;5.196;2023-07-13T11:56:46;2.40;;;2.40;;
24787;SDS011;12883;52.662;5.196;2023-07-13T11:59:11;2.65;;;2.65;;
24787;SDS011;12883;52.662;5.196;2023-07-13T12:01:42;2.72;;;2.72;;
24787;SDS011;12883;52.662;5.196;2023-07-13T12:04:25;2.35;;;2.35;;
24787;SDS011;12883;52.662;5.196;2023-07-13T12:06:58;2.20;;;2.20;;
24787;SDS011;12883;52.662;5.196;2023-07-13T12:09:30;2.38;;;2.38;;
24787;SDS011;12883;52.662;5.196;2023-07-13T12:11:56;2.35;;;2.35;;
24787;SDS011;12883;52.662;5.196;2023-07-13T12:14:24;2.42;;;2.42;;
24787;SDS011;12883;52.662;5.196;2023-07-13T12:16:51;2.55;;;2.55;;
24787;SDS011;12883;52.662;5.196;2023-07-13T12:19:27;2.45;;;2.45;;
24787;SDS011;12883;52.662;5.196;2023-07-13T12:21:54;2.45;;;2.45;;
24787;SDS011;12883;52.662;5.196;2023-07-13T12:24:22;2.60;;;2.60;;
24787;SDS011;12883;52.662;5.196;2023-07-13T12:26:55;2.78;;;2.78;;
24787;SDS011;12883;52.662;5.196;2023-07-13T12:29:26;2.65;;;2.65;;
24787;SDS011;12883;52.662;5.196;2023-07-13T12:31:51;3.15;;;3.15;;
24787;SDS011;12883;52.662;5.196;2023-07-13T12:34:21;2.20;;;2.20;;
24787;SDS011;12883;52.662;5.196;2023-07-13T12:36:59;2.55;;;2.55;;
24787;SDS011;12883;52.662;5.196;2023-07-13T12:39:28;2.65;;;2.65;;
24787;SDS011;12883;52.662;5.196;2023-07-13T12:42:00;2.80;;;2.80;;
24787;SDS011;12883;52.662;5.196;2023-07-13T12:44:54;3.35;;;3.35;;
24787;SDS011;12883;52.662;5.196;2023-07-13T12:47:22;2.40;;;2.40;;
24787;SDS011;12883;52.662;5.196;2023-07-13T12:49:49;3.13;;;3.13;;
24787;SDS011;12883;52.662;5.196;2023-07-13T12:52:20;2.88;;;2.88;;
24787;SDS011;12883;52.662;5.196;2023-07-13T12:54:58;2.22;;;2.22;;
24787;SDS011;12883;52.662;5.196;2023-07-13T12:57:29;2.50;;;2.50;;
24787;SDS011;12883;52.662;5.196;2023-07-13T12:59:54;2.22;;;2.22;;
24787;SDS011;12883;52.662;5.196;2023-07-13T13:02:30;2.22;;;2.22;;
24787;SDS011;12883;52.662;5.196;2023-07-13T13:04:59;2.83;;;2.83;;
24787;SDS011;12883;52.662;5.196;2023-07-13T13:07:25;2.63;;;2.63;;
24787;SDS011;12883;52.662;5.196;2023-07-13T13:09:51;2.35;;;2.35;;
24787;SDS011;12883;52.662;5.196;2023-07-13T13:12:18;2.95;;;2.95;;
24787;SDS011;12883;52.662;5.196;2023-07-13T13:14:44;2.70;;;2.70;;
24787;SDS011;12883;52.662;5.196;2023-07-13T13:17:24;2.75;;;2.75;;
24787;SDS011;12883;52.662;5.196;2023-07-13T13:19:53;2.58;;;2.58;;
24787;SDS011;12883;52.662;5.196;2023-07-13T13:22:19;3.00;;;3.00;;
24787;SDS011;12883;52.662;5.196;2023-07-13T13:24:45;3.08;;;3.08;;
24787;SDS011;12883;52.662;5.196;2023-07-13T13:27:15;3.45;;;3.45;;
24787;SDS011;12883;52.662;5.196;2023-07-13T13:29:43;2.50;;;2.50;;
24787;SDS011;12883;52.662;5.196;2023-07-13T13:32:09;2.72;;;2.72;;
24787;SDS011;12883;52.662;5.196;2023-07-13T13:34:37;2.92;;;2.92;;
24787;SDS011;12883;52.662;5.196;2023-07-13T13:37:03;2.88;;;2.88;;
24787;SDS011;12883;52.662;5.196;2023-07-13T13:39:34;2.60;;;2.60;;
24787;SDS011;12883;52.662;5.196;2023-07-13T13:42:01;3.38;;;3.38;;
24787;SDS011;12883;52.662;5.196;2023-07-13T13:44:27;3.03;;;3.03;;
24787;SDS011;12883;52.662;5.196;2023-07-13T13:46:53;2.47;;;2.47;;
24787;SDS011;12883;52.662;5.196;2023-07-13T13:49:24;2.58;;;2.58;;
24787;SDS011;12883;52.662;5.196;2023-07-13T13:51:51;2.83;;;2.83;;
24787;SDS011;12883;52.662;5.196;2023-07-13T13:54:18;2.92;;;2.92;;
24787;SDS011;12883;52.662;5.196;2023-07-13T13:56:45;2.70;;;2.70;;
24787;SDS011;12883;52.662;5.196;2023-07-13T13:59:12;2.97;;;2.97;;
24787;SDS011;12883;52.662;5.196;2023-07-13T14:01:37;2.50;;;2.50;;
24787;SDS011;12883;52.662;5.196;2023-07-13T14:04:04;2.08;;;2.08;;
24787;SDS011;12883;52.662;5.196;2023-07-13T14:06:30;2.60;;;2.60;;
24787;SDS011;12883;52.662;5.196;2023-07-13T14:08:56;2.97;;;2.97;;
24787;SDS011;12883;52.662;5.196;2023-07-13T14:11:22;2.40;;;2.40;;
24787;SDS011;12883;52.662;5.196;2023-07-13T14:13:48;2.50;;;2.50;;
24787;SDS011;12883;52.662;5.196;2023-07-13T14:16:16;2.47;;;2.47;;
24787;SDS011;12883;52.662;5.196;2023-07-13T14:18:46;2.88;;;2.88;;
24787;SDS011;12883;52.662;5.196;2023-07-13T14:21:13;2.20;;;2.20;;
24787;SDS011;12883;52.662;5.196;2023-07-13T14:23:40;2.40;;;2.40;;
24787;SDS011;12883;52.662;5.196;2023-07-13T14:26:16;2.80;;;2.80;;
24787;SDS011;12883;52.662;5.196;2023-07-13T14:28:48;2.22;;;2.22;;
24787;SDS011;12883;52.662;5.196;2023-07-13T14:31:15;2.50;;;2.50;;
24787;SDS011;12883;52.662;5.196;2023-07-13T14:33:42;2.53;;;2.53;;
24787;SDS011;12883;52.662;5.196;2023-07-13T14:38:45;2.42;;;2.42;;
24787;SDS011;12883;52.662;5.196;2023-07-13T14:41:10;2.85;;;2.85;;
24787;SDS011;12883;52.662;5.196;2023-07-13T14:43:36;2.60;;;2.60;;
24787;SDS011;12883;52.662;5.196;2023-07-13T14:46:01;3.67;;;3.67;;
24787;SDS011;12883;52.662;5.196;2023-07-13T14:48:26;3.42;;;3.42;;
24787;SDS011;12883;52.662;5.196;2023-07-13T14:50:56;3.13;;;3.13;;
24787;SDS011;12883;52.662;5.196;2023-07-13T14:53:24;3.22;;;3.22;;
24787;SDS011;12883;52.662;5.196;2023-07-13T14:55:50;3.50;;;3.50;;
24787;SDS011;12883;52.662;5.196;2023-07-13T14:58:15;3.00;;;3.00;;
24787;SDS011;12883;52.662;5.196;2023-07-13T15:00:41;3.72;;;3.72;;
24787;SDS011;12883;52.662;5.196;2023-07-13T15:03:08;3.03;;;3.03;;
24787;SDS011;12883;52.662;5.196;2023-07-13T15:05:46;2.67;;;2.67;;
24787;SDS011;12883;52.662;5.196;2023-07-13T15:08:12;2.85;;;2.85;;
24787;SDS011;12883;52.662;5.196;2023-07-13T15:10:38;3.45;;;3.45;;
24787;SDS011;12883;52.662;5.196;2023-07-13T15:13:17;2.90;;;2.90;;
24787;SDS011;12883;52.662;5.196;2023-07-13T15:15:45;2.95;;;2.95;;
24787;SDS011;12883;52.662;5.196;2023-07-13T15:18:13;3.28;;;3.28;;
24787;SDS011;12883;52.662;5.196;2023-07-13T15:20:42;3.70;;;3.70;;
24787;SDS011;12883;52.662;5.196;2023-07-13T15:23:10;3.10;;;3.10;;
24787;SDS011;12883;52.662;5.196;2023-07-13T15:25:36;2.83;;;2.83;;
24787;SDS011;12883;52.662;5.196;2023-07-13T15:28:01;3.13;;;3.13;;
24787;SDS011;12883;52.662;5.196;2023-07-13T15:30:28;3.30;;;3.30;;